Elcho, Wisconsin
Current Conditions -  °F | °C
As of 12:30 AM on Saturday 20 Dec 2014 (Local Time) from KRHI Reporting Station
Haze Haze  
Wind Chill: 20°   Ceiling: 1800
Heat Index: 20°   Visibility: 6mi
Dew Point: 18°   Wind: 3mph
Humidity: 92%   Direction: 150°SSE
Pressure: 30.18"   Gusts: NA
Location:  45.44°N, 89.18°W
Report Text: KRHI 200630Z AUTO 15003KT 6SM BR SCT006 OVC018 M07/M08 A3018 RMK AO2 T10671078
Loading
Personal Weather Stations






























Interactive Weather Map New forecast layout! Learn more

10-Day Weather Forecast

Advertisements
Track Severe Weather on mobile